Time;durP1;ratioP1;P1;durP2;ratioP2;P2;SDS_P1;SDS_P2;PMS_P1;PMS_P2;Temp;Humidity;BMP_temperature;BMP_pressure;BME280_temperature;BME280_humidity;BME280_pressure;Samples;Min_cycle;Max_cycle;Signal;HPM_P1;HPM_P2
2024/04/07 00:01:55;;;;;;;12.63;3.57;;;19.30;65.30;;;;;;783119;183;26445;-80
2024/04/07 00:04:22;;;;;;;12.20;3.83;;;19.40;60.30;;;;;;784823;183;26447;-79
2024/04/07 00:06:49;;;;;;;7.23;3.43;;;19.60;61.00;;;;;;785068;183;26475;-79
2024/04/07 00:09:15;;;;;;;9.20;3.40;;;19.50;65.20;;;;;;783687;183;26443;-79
2024/04/07 00:11:42;;;;;;;6.87;2.97;;;19.50;60.90;;;;;;782569;182;26462;-79
2024/04/07 00:14:08;;;;;;;6.17;3.27;;;19.90;56.30;;;;;;789219;180;26475;-79
2024/04/07 00:16:35;;;;;;;9.80;3.33;;;20.10;55.20;;;;;;775742;183;27104;-79
2024/04/07 00:19:01;;;;;;;5.13;2.60;;;20.40;52.80;;;;;;775327;183;26488;-79
2024/04/07 00:21:28;;;;;;;11.77;3.60;;;20.40;52.50;;;;;;772860;183;27043;-79
2024/04/07 00:23:55;;;;;;;15.63;3.60;;;20.40;52.20;;;;;;779284;181;26457;-79
2024/04/07 00:26:21;;;;;;;8.40;4.17;;;20.40;52.60;;;;;;796222;179;26467;-80
2024/04/07 00:28:48;;;;;;;8.27;3.43;;;20.70;50.60;;;;;;774966;182;26559;-79
2024/04/07 00:31:15;;;;;;;10.20;3.27;;;20.50;54.20;;;;;;778558;183;26485;-80
2024/04/07 00:33:41;;;;;;;8.67;2.73;;;20.60;51.00;;;;;;777134;183;26463;-79
2024/04/07 00:36:09;;;;;;;6.67;2.53;;;20.70;50.50;;;;;;781634;184;26829;-81
2024/04/07 00:38:34;;;;;;;7.63;2.83;;;20.80;49.10;;;;;;772581;183;26509;-81
2024/04/07 00:41:01;;;;;;;12.53;4.77;;;20.80;49.20;;;;;;782233;181;26488;-81
2024/04/07 00:43:27;;;;;;;9.47;2.90;;;20.90;49.20;;;;;;780907;179;26482;-80
2024/04/07 00:45:54;;;;;;;17.53;3.87;;;20.70;49.50;;;;;;785359;180;26500;-80
2024/04/07 00:48:21;;;;;;;9.87;2.90;;;20.80;49.10;;;;;;784221;180;26474;-79
2024/04/07 00:50:47;;;;;;;6.90;2.30;;;20.70;49.40;;;;;;786568;180;26484;-78
2024/04/07 00:53:14;;;;;;;10.47;2.70;;;20.70;49.50;;;;;;781154;181;26628;-79
2024/04/07 00:55:41;;;;;;;8.53;2.80;;;20.60;49.60;;;;;;782640;183;26480;-79
2024/04/07 00:58:10;;;;;;;8.67;2.43;;;20.60;49.70;;;;;;774785;183;26744;-79
2024/04/07 01:00:36;;;;;;;6.93;2.50;;;20.50;49.80;;;;;;771525;183;27114;-80
2024/04/07 01:03:03;;;;;;;12.73;2.77;;;20.50;49.80;;;;;;778946;183;26517;-79
2024/04/07 01:05:37;;;;;;;8.03;2.37;;;20.60;49.90;;;;;;782407;183;26460;-80
2024/04/07 01:08:04;;;;;;;7.67;2.50;;;20.50;50.30;;;;;;782437;183;26450;-80
2024/04/07 01:10:31;;;;;;;12.30;2.50;;;20.40;51.00;;;;;;785251;180;26460;-79
2024/04/07 01:12:57;;;;;;;9.33;2.67;;;20.40;50.60;;;;;;775196;183;27012;-79
2024/04/07 01:15:24;;;;;;;8.20;2.77;;;20.50;50.50;;;;;;779617;184;26459;-81
2024/04/07 01:17:51;;;;;;;5.67;2.60;;;20.50;50.70;;;;;;783674;183;27008;-79
2024/04/07 01:20:17;;;;;;;10.97;3.87;;;20.40;51.90;;;;;;787780;180;26496;-79
2024/04/07 01:22:44;;;;;;;10.40;2.77;;;20.40;50.80;;;;;;776088;182;26517;-79
2024/04/07 01:25:11;;;;;;;7.30;3.67;;;20.40;51.10;;;;;;781551;183;26476;-80
2024/04/07 01:27:37;;;;;;;6.20;2.80;;;20.30;52.10;;;;;;788387;181;26508;-80
2024/04/07 01:30:04;;;;;;;10.57;2.20;;;20.30;52.20;;;;;;788605;180;26616;-80
2024/04/07 01:32:30;;;;;;;22.27;9.17;;;20.20;51.60;;;;;;795254;181;26451;-80
2024/04/07 01:34:57;;;;;;;7.07;2.80;;;20.20;51.70;;;;;;792145;180;26452;-79
2024/04/07 01:37:24;;;;;;;7.63;2.37;;;20.30;51.60;;;;;;775898;182;26520;-80
2024/04/07 01:39:51;;;;;;;8.83;3.10;;;20.30;51.20;;;;;;783761;182;26507;-80
2024/04/07 01:42:17;;;;;;;6.90;2.40;;;20.30;51.20;;;;;;784296;180;26446;-79
2024/04/07 01:44:44;;;;;;;8.13;2.47;;;20.30;51.70;;;;;;771842;183;26478;-80
2024/04/07 01:47:10;;;;;;;5.97;2.30;;;20.10;53.70;;;;;;777721;182;26471;-79
2024/04/07 01:49:37;;;;;;;6.37;2.87;;;19.90;56.90;;;;;;780859;183;26486;-78
2024/04/07 01:52:03;;;;;;;7.70;2.20;;;19.90;53.20;;;;;;784997;181;26490;-79
2024/04/07 01:54:32;;;;;;;5.37;2.43;;;19.90;54.20;;;;;;781407;184;26454;-79
2024/04/07 01:56:57;;;;;;;9.43;2.30;;;20.00;53.30;;;;;;774143;183;26818;-79
2024/04/07 01:59:24;;;;;;;8.83;2.60;;;19.90;54.20;;;;;;780631;184;26513;-79
2024/04/07 02:01:50;;;;;;;11.43;2.80;;;19.90;54.20;;;;;;775364;183;26479;-79
2024/04/07 02:04:17;;;;;;;9.87;2.53;;;19.80;55.90;;;;;;776753;183;26488;-79
2024/04/07 02:06:43;;;;;;;7.40;2.93;;;19.70;55.00;;;;;;782365;184;26441;-79
2024/04/07 02:09:11;;;;;;;8.67;2.70;;;19.90;54.80;;;;;;779600;181;26496;-79
2024/04/07 02:11:36;;;;;;;8.27;2.37;;;19.80;57.40;;;;;;776686;182;26494;-80
2024/04/07 02:14:03;;;;;;;8.03;2.40;;;19.70;55.30;;;;;;777408;183;26496;-79
2024/04/07 02:16:29;;;;;;;6.60;2.40;;;19.80;55.00;;;;;;773957;183;26511;-79
2024/04/07 02:18:56;;;;;;;9.73;2.80;;;19.90;55.00;;;;;;770851;183;26500;-78
2024/04/07 02:21:23;;;;;;;9.13;3.90;;;19.80;55.10;;;;;;778456;182;26511;-79
2024/04/07 02:23:49;;;;;;;11.97;4.47;;;19.80;54.90;;;;;;776664;183;26478;-78
2024/04/07 02:26:16;;;;;;;57.30;27.90;;;19.80;55.40;;;;;;779151;184;26494;-79
2024/04/07 02:28:42;;;;;;;13.37;4.07;;;19.80;55.50;;;;;;774574;183;26531;-78
2024/04/07 02:31:09;;;;;;;225.53;106.07;;;19.90;55.30;;;;;;779201;184;26462;-78
2024/04/07 02:33:36;;;;;;;48.50;24.63;;;19.90;56.00;;;;;;774419;183;27089;-79
2024/04/07 02:36:02;;;;;;;15.17;6.77;;;19.90;56.40;;;;;;777025;184;26478;-79
2024/04/07 02:38:29;;;;;;;20.27;8.47;;;19.80;58.00;;;;;;784741;181;26462;-78
2024/04/07 02:40:55;;;;;;;24.77;8.77;;;19.70;58.90;;;;;;777641;169;26541;-79
2024/04/07 02:43:22;;;;;;;16.20;8.17;;;19.70;57.90;;;;;;776697;181;26506;-81
2024/04/07 02:48:21;;;;;;;18.73;9.80;;;19.80;60.40;;;;;;775006;183;26462;-81
2024/04/07 02:50:47;;;;;;;14.80;5.90;;;19.70;61.20;;;;;;772410;183;26542;-78
2024/04/07 02:53:14;;;;;;;12.43;5.00;;;19.60;63.80;;;;;;758810;187;26649;-79
2024/04/07 02:55:41;;;;;;;18.87;7.63;;;19.60;64.60;;;;;;759968;187;26519;-80
2024/04/07 02:58:07;;;;;;;9.43;4.50;;;19.60;65.70;;;;;;760279;186;26504;-80
2024/04/07 03:00:34;;;;;;;8.90;2.93;;;19.60;68.60;;;;;;761959;186;26562;-80
2024/04/07 03:03:00;;;;;;;10.27;3.30;;;19.60;71.00;;;;;;761430;186;26508;-79
2024/04/07 03:05:27;;;;;;;12.07;4.07;;;19.60;77.90;;;;;;764720;186;26533;-80
2024/04/07 03:07:54;;;;;;;12.37;4.87;;;19.50;78.00;;;;;;759690;186;26520;-80
2024/04/07 03:10:20;;;;;;;8.53;3.27;;;19.50;80.00;;;;;;762881;186;26635;-79
2024/04/07 03:12:47;;;;;;;13.93;4.40;;;19.40;85.80;;;;;;757156;187;26515;-79
2024/04/07 03:15:13;;;;;;;10.87;3.27;;;19.40;85.70;;;;;;758325;188;26539;-80
2024/04/07 03:17:40;;;;;;;13.40;2.83;;;19.30;89.30;;;;;;768182;185;26528;-81
2024/04/07 03:20:07;;;;;;;13.27;3.30;;;19.30;90.10;;;;;;760542;185;26542;-80
2024/04/07 03:22:33;;;;;;;16.90;5.30;;;19.20;90.80;;;;;;763049;184;26509;-79
2024/04/07 03:25:00;;;;;;;11.63;4.60;;;19.20;91.20;;;;;;759096;187;27053;-79
2024/04/07 03:27:27;;;;;;;13.87;5.37;;;19.10;92.00;;;;;;761712;187;26534;-79
2024/04/07 03:29:53;;;;;;;9.53;4.23;;;19.00;93.00;;;;;;758413;187;27073;-79
2024/04/07 03:32:20;;;;;;;12.70;4.60;;;19.00;93.80;;;;;;755362;188;26513;-79
2024/04/07 03:34:46;;;;;;;15.80;5.07;;;18.90;93.30;;;;;;760286;187;26500;-80
2024/04/07 03:37:13;;;;;;;10.80;3.90;;;18.80;94.70;;;;;;761333;187;26518;-80
2024/04/07 03:39:40;;;;;;;9.80;3.37;;;18.90;94.50;;;;;;758001;185;26496;-80
2024/04/07 03:42:06;;;;;;;11.60;3.07;;;18.80;95.90;;;;;;759255;188;26522;-79
2024/04/07 03:44:33;;;;;;;8.17;3.00;;;18.80;94.90;;;;;;760034;188;26533;-77
2024/04/07 03:46:59;;;;;;;8.77;3.03;;;18.80;95.10;;;;;;759791;181;26545;-81
2024/04/07 03:49:26;;;;;;;11.80;3.73;;;18.80;95.00;;;;;;760874;187;26510;-81
2024/04/07 03:51:53;;;;;;;9.17;3.43;;;18.80;96.20;;;;;;755583;187;26513;-79
2024/04/07 03:54:19;;;;;;;11.50;3.30;;;18.70;96.20;;;;;;758778;187;26510;-80
2024/04/07 03:56:46;;;;;;;8.70;3.03;;;18.80;95.90;;;;;;758252;186;26505;-79
2024/04/07 03:59:13;;;;;;;12.00;3.30;;;18.70;96.50;;;;;;764484;185;26509;-79
2024/04/07 04:01:41;;;;;;;11.00;3.03;;;18.70;96.60;;;;;;762905;186;27069;-79
2024/04/07 04:04:06;;;;;;;12.40;3.87;;;18.70;96.60;;;;;;761704;187;26525;-77
2024/04/07 04:06:33;;;;;;;9.50;3.20;;;18.60;96.70;;;;;;760301;186;26790;-81
2024/04/07 04:08:59;;;;;;;10.47;3.10;;;18.50;98.20;;;;;;761378;184;26563;-77
2024/04/07 04:11:27;;;;;;;11.33;2.97;;;18.50;97.90;;;;;;764995;186;26657;-79
2024/04/07 04:13:53;;;;;;;7.30;2.87;;;18.40;98.20;;;;;;760828;187;26512;-82
2024/04/07 04:16:20;;;;;;;9.00;3.10;;;18.50;98.30;;;;;;758031;190;26707;-79
2024/04/07 04:18:47;;;;;;;10.17;3.03;;;18.40;98.50;;;;;;758494;188;26518;-77
2024/04/07 04:21:13;;;;;;;14.83;3.40;;;18.40;98.90;;;;;;763961;185;26554;-80
2024/04/07 04:23:39;;;;;;;9.97;3.57;;;18.30;98.90;;;;;;764641;187;26499;-79
2024/04/07 04:26:06;;;;;;;11.03;3.37;;;18.20;99.60;;;;;;764563;187;26528;-80
2024/04/07 04:28:33;;;;;;;9.63;3.07;;;18.20;99.50;;;;;;761656;186;26523;-79
2024/04/07 04:31:00;;;;;;;11.07;2.73;;;18.20;99.40;;;;;;756368;189;26508;-80
2024/04/07 04:33:28;;;;;;;11.67;3.03;;;18.10;99.80;;;;;;764396;187;26555;-78
2024/04/07 04:35:55;;;;;;;9.33;3.30;;;18.10;99.90;;;;;;759173;188;26503;-79
2024/04/07 04:38:22;;;;;;;10.13;2.80;;;18.10;99.90;;;;;;758754;188;26531;-80
2024/04/07 04:40:53;;;;;;;9.90;3.40;;;18.00;99.90;;;;;;764832;181;26516;-79
2024/04/07 04:43:20;;;;;;;10.57;3.17;;;18.00;99.90;;;;;;756721;188;27059;-79
2024/04/07 04:45:46;;;;;;;9.40;3.00;;;17.90;99.90;;;;;;760907;187;26541;-78
2024/04/07 04:48:13;;;;;;;9.10;3.10;;;18.00;99.90;;;;;;758194;185;27058;-79
2024/04/07 04:50:43;;;;;;;11.20;2.97;;;17.90;99.90;;;;;;761775;184;26576;-78
2024/04/07 04:53:09;;;;;;;9.87;2.90;;;17.90;99.90;;;;;;758391;187;26520;-79
2024/04/07 04:55:36;;;;;;;12.13;3.47;;;17.90;99.90;;;;;;761236;184;26515;-80
2024/04/07 04:58:03;;;;;;;14.37;3.23;;;17.90;99.90;;;;;;758697;183;26508;-78
2024/04/07 05:00:29;;;;;;;10.97;3.70;;;17.80;99.90;;;;;;757537;187;26568;-78
2024/04/07 05:02:56;;;;;;;9.73;2.93;;;17.80;99.90;;;;;;756801;185;27081;-78
2024/04/07 05:05:22;;;;;;;10.33;3.37;;;17.80;99.90;;;;;;759685;187;26542;-78
2024/04/07 05:07:51;;;;;;;13.27;3.40;;;17.70;99.90;;;;;;760287;187;27031;-77
2024/04/07 05:10:16;;;;;;;10.37;3.70;;;17.80;99.90;;;;;;763071;185;26514;-77
2024/04/07 05:12:42;;;;;;;12.57;2.60;;;17.70;99.90;;;;;;760390;186;26659;-77
2024/04/07 05:15:09;;;;;;;14.00;3.40;;;17.70;99.90;;;;;;762276;186;26889;-75
2024/04/07 05:17:35;;;;;;;7.20;3.00;;;17.70;99.90;;;;;;761692;187;26540;-78
2024/04/07 05:20:04;;;;;;;12.93;3.43;;;17.70;99.90;;;;;;759485;186;27086;-77
2024/04/07 05:22:29;;;;;;;7.73;3.20;;;17.70;99.90;;;;;;757390;187;26513;-77
2024/04/07 05:24:56;;;;;;;11.27;3.07;;;17.60;99.90;;;;;;764237;186;27110;-77
2024/04/07 05:27:22;;;;;;;8.77;3.10;;;17.70;99.90;;;;;;757862;186;26590;-75
2024/04/07 05:29:49;;;;;;;8.90;3.63;;;17.60;99.90;;;;;;758138;186;26617;-78
2024/04/07 05:32:17;;;;;;;10.90;3.27;;;17.60;99.90;;;;;;761542;185;26612;-77
2024/04/07 05:34:45;;;;;;;9.73;3.27;;;17.50;99.90;;;;;;765097;185;26528;-77
2024/04/07 05:37:09;;;;;;;11.03;3.73;;;17.50;99.90;;;;;;759516;187;26493;-77
2024/04/07 05:39:36;;;;;;;11.37;2.60;;;17.50;99.90;;;;;;769412;186;26488;-77
2024/04/07 05:42:03;;;;;;;9.57;3.63;;;17.50;99.90;;;;;;762892;186;26645;-77
2024/04/07 05:44:29;;;;;;;8.30;2.93;;;17.50;99.90;;;;;;760314;186;26526;-77
2024/04/07 05:46:56;;;;;;;13.80;3.57;;;17.60;99.90;;;;;;761754;187;26606;-77
2024/04/07 05:49:23;;;;;;;7.87;2.83;;;17.60;99.90;;;;;;764898;187;26501;-77
2024/04/07 05:51:50;;;;;;;10.23;3.13;;;17.60;99.90;;;;;;760788;187;26517;-77
2024/04/07 05:54:17;;;;;;;11.83;3.00;;;17.60;99.90;;;;;;761430;187;26489;-77
2024/04/07 05:56:43;;;;;;;5.83;2.63;;;17.60;99.90;;;;;;759447;187;27080;-78
2024/04/07 05:59:10;;;;;;;6.90;2.43;;;17.60;99.90;;;;;;758076;187;26605;-78
2024/04/07 06:01:36;;;;;;;6.20;2.97;;;17.60;99.90;;;;;;756620;187;27072;-77
2024/04/07 06:04:04;;;;;;;10.67;2.73;;;17.60;99.90;;;;;;758434;187;26535;-78
2024/04/07 06:06:29;;;;;;;8.47;2.53;;;17.60;99.90;;;;;;761439;187;27033;-77
2024/04/07 06:08:56;;;;;;;7.20;2.37;;;17.60;99.90;;;;;;762599;187;26530;-77
2024/04/07 06:11:23;;;;;;;8.60;2.83;;;17.60;99.90;;;;;;761700;184;27284;-76
2024/04/07 06:13:50;;;;;;;5.23;2.13;;;17.60;99.90;;;;;;758508;187;26556;-77
2024/04/07 06:16:17;;;;;;;10.43;2.67;;;17.60;99.90;;;;;;758974;187;26835;-77
2024/04/07 06:18:43;;;;;;;6.80;2.87;;;17.60;99.90;;;;;;761391;186;26513;-77
2024/04/07 06:21:10;;;;;;;5.90;2.60;;;17.60;99.90;;;;;;756934;186;26516;-77
2024/04/07 06:23:36;;;;;;;5.47;2.23;;;17.70;99.90;;;;;;761610;186;26529;-77
2024/04/07 06:26:03;;;;;;;6.37;2.50;;;17.70;99.60;;;;;;763474;186;27125;-77
2024/04/07 06:28:30;;;;;;;7.27;2.83;;;17.70;99.90;;;;;;755892;186;27104;-77
2024/04/07 06:30:57;;;;;;;9.77;2.83;;;17.70;99.90;;;;;;757848;185;26540;-77
2024/04/07 06:33:26;;;;;;;6.63;2.60;;;17.80;99.90;;;;;;762410;186;27077;-78
2024/04/07 06:35:49;;;;;;;5.73;2.57;;;17.80;99.90;;;;;;757582;186;26532;-78
2024/04/07 06:38:16;;;;;;;6.07;3.00;;;17.80;99.90;;;;;;760922;187;26510;-78
2024/04/07 06:40:43;;;;;;;3.93;2.20;;;17.80;99.90;;;;;;760394;186;26662;-78
2024/04/07 06:43:09;;;;;;;4.03;2.17;;;17.80;99.90;;;;;;758980;187;26634;-78
2024/04/07 06:45:36;;;;;;;6.20;2.70;;;17.60;99.90;;;;;;759690;185;26530;-77
2024/04/07 06:48:03;;;;;;;6.77;2.20;;;17.70;99.90;;;;;;763906;186;27082;-78
2024/04/07 06:50:29;;;;;;;5.97;2.40;;;17.60;99.90;;;;;;757906;186;26549;-77
2024/04/07 06:52:56;;;;;;;13.43;2.60;;;17.70;99.90;;;;;;760480;186;26534;-77
2024/04/07 06:55:22;;;;;;;8.90;3.30;;;17.70;99.90;;;;;;758163;186;26538;-78
2024/04/07 06:57:49;;;;;;;10.40;2.50;;;17.70;99.90;;;;;;759301;185;26526;-77
2024/04/07 07:00:16;;;;;;;6.43;2.83;;;17.70;99.90;;;;;;760649;187;26509;-77
2024/04/07 07:02:42;;;;;;;6.67;2.53;;;17.80;99.90;;;;;;757076;188;26538;-78
2024/04/07 07:05:09;;;;;;;6.43;2.40;;;18.00;99.90;;;;;;760638;187;26481;-77
2024/04/07 07:07:35;;;;;;;5.43;2.30;;;18.00;98.50;;;;;;763818;188;26501;-77
2024/04/07 07:10:03;;;;;;;6.63;2.37;;;18.20;97.70;;;;;;761868;187;28778;-77
2024/04/07 07:12:29;;;;;;;5.37;2.90;;;18.30;97.90;;;;;;757497;187;26539;-77
2024/04/07 07:14:55;;;;;;;6.03;2.00;;;18.40;97.40;;;;;;758124;185;26489;-77
2024/04/07 07:17:23;;;;;;;6.33;2.03;;;18.30;96.50;;;;;;761968;187;26514;-77
2024/04/07 07:19:49;;;;;;;9.03;3.67;;;18.40;97.20;;;;;;755100;188;26542;-76
2024/04/07 07:22:15;;;;;;;4.63;2.00;;;18.60;97.50;;;;;;755150;187;26687;-77
2024/04/07 07:24:42;;;;;;;7.93;2.80;;;18.60;96.40;;;;;;761099;185;26543;-77
2024/04/07 07:27:09;;;;;;;7.87;3.20;;;18.60;96.60;;;;;;759826;187;27242;-76
2024/04/07 07:29:35;;;;;;;7.77;2.47;;;18.70;97.40;;;;;;758169;187;26518;-77
2024/04/07 07:32:02;;;;;;;10.00;2.77;;;18.60;96.70;;;;;;761938;187;26535;-78
2024/04/07 07:34:30;;;;;;;4.57;2.30;;;18.60;98.20;;;;;;760500;186;27027;-77
2024/04/07 07:36:55;;;;;;;9.93;3.23;;;18.70;97.30;;;;;;763641;186;26780;-77
2024/04/07 07:39:22;;;;;;;6.70;2.50;;;18.90;97.80;;;;;;758418;186;26542;-76
2024/04/07 07:41:48;;;;;;;8.17;3.07;;;18.80;97.90;;;;;;765558;186;26517;-76
2024/04/07 07:44:15;;;;;;;8.70;2.73;;;19.00;97.50;;;;;;762025;186;26485;-78
2024/04/07 07:46:42;;;;;;;9.63;2.80;;;19.00;97.90;;;;;;758460;187;26589;-76
2024/04/07 07:49:08;;;;;;;9.20;2.77;;;18.90;97.60;;;;;;763937;185;26537;-75
2024/04/07 07:51:35;;;;;;;6.97;2.40;;;18.90;98.10;;;;;;762526;186;26508;-75
2024/04/07 07:54:01;;;;;;;8.07;2.53;;;19.00;97.90;;;;;;763854;186;26493;-74
2024/04/07 07:56:28;;;;;;;6.63;2.60;;;19.00;97.90;;;;;;760495;185;26488;-76
2024/04/07 07:58:55;;;;;;;8.27;2.63;;;19.10;98.10;;;;;;761688;184;26516;-76
2024/04/07 08:01:21;;;;;;;7.70;2.90;;;19.20;98.00;;;;;;758707;185;26542;-75
2024/04/07 08:03:49;;;;;;;5.60;2.67;;;19.20;97.70;;;;;;758796;186;26493;-75
2024/04/07 08:06:15;;;;;;;7.40;2.90;;;19.40;97.20;;;;;;762983;186;27140;-75
2024/04/07 08:08:42;;;;;;;10.07;2.83;;;19.50;98.60;;;;;;759625;187;26486;-76
2024/04/07 08:11:09;;;;;;;5.57;2.87;;;19.50;97.20;;;;;;757608;187;26513;-76
2024/04/07 08:13:35;;;;;;;8.30;2.70;;;19.40;97.80;;;;;;761895;187;26488;-79
2024/04/07 08:16:15;;;;;;;11.37;2.50;;;19.50;98.00;;;;;;761381;185;26516;-81
2024/04/07 08:18:47;;;;;;;9.23;2.90;;;19.50;97.70;;;;;;758623;187;26673;-81
2024/04/07 08:21:15;;;;;;;10.63;2.87;;;19.40;97.70;;;;;;782678;171;26486;-84
2024/04/07 08:23:42;;;;;;;10.83;3.13;;;19.30;98.10;;;;;;796091;181;26414;-84
2024/04/07 08:29:04;;;;;;;10.17;3.47;;;19.40;95.40;;;;;;746848;172;26478;-84
2024/04/07 08:31:30;;;;;;;7.27;3.10;;;19.50;94.40;;;;;;801324;174;26448;-82
2024/04/07 08:33:57;;;;;;;16.00;6.23;;;19.60;94.40;;;;;;801068;178;26406;-84
2024/04/07 08:36:24;;;;;;;9.50;2.90;;;19.60;93.10;;;;;;807883;177;26409;-85
2024/04/07 08:41:43;;;;;;;4.87;2.27;;;19.70;92.60;;;;;;742037;173;26661;-80
2024/04/07 08:44:10;;;;;;;6.73;3.53;;;19.70;91.70;;;;;;799818;169;26491;-81
2024/04/07 08:46:37;;;;;;;11.47;4.90;;;19.70;91.20;;;;;;808826;175;26445;-82
2024/04/07 08:49:03;;;;;;;7.47;3.63;;;19.80;90.00;;;;;;792552;181;26441;-81
2024/04/07 08:51:30;;;;;;;7.93;4.73;;;19.90;89.50;;;;;;795869;176;27058;-80
2024/04/07 08:53:57;;;;;;;9.27;2.57;;;20.10;86.10;;;;;;790019;179;26528;-80
2024/04/07 08:56:24;;;;;;;8.23;2.50;;;20.20;82.40;;;;;;816110;176;26412;-82
2024/04/07 08:58:51;;;;;;;7.00;2.23;;;20.30;81.20;;;;;;815499;176;26425;-82
2024/04/07 09:01:17;;;;;;;7.37;2.30;;;20.50;80.60;;;;;;816000;174;26429;-82
2024/04/07 09:03:44;;;;;;;2.97;1.70;;;20.80;76.40;;;;;;814347;176;26413;-81
2024/04/07 09:06:11;;;;;;;4.83;2.33;;;20.90;73.70;;;;;;817168;176;26537;-81
2024/04/07 09:08:37;;;;;;;8.43;4.73;;;20.90;73.40;;;;;;815163;176;26429;-83
2024/04/07 09:11:04;;;;;;;5.50;2.20;;;20.90;71.90;;;;;;815551;176;26453;-82
2024/04/07 09:13:31;;;;;;;7.20;3.10;;;20.90;70.90;;;;;;815515;176;26431;-82
2024/04/07 09:15:58;;;;;;;4.67;2.30;;;20.70;70.70;;;;;;815487;175;26406;-82
2024/04/07 09:18:24;;;;;;;5.73;2.10;;;20.60;70.00;;;;;;815393;176;26438;-82
2024/04/07 09:20:51;;;;;;;4.70;1.83;;;20.60;70.40;;;;;;816717;176;26465;-82
2024/04/07 09:23:18;;;;;;;6.73;2.13;;;20.60;70.00;;;;;;814409;176;26941;-83
2024/04/07 09:25:44;;;;;;;9.20;4.20;;;20.60;69.80;;;;;;815492;176;26465;-82
2024/04/07 09:28:11;;;;;;;5.47;2.43;;;20.70;69.30;;;;;;815051;176;26410;-83
2024/04/07 09:30:38;;;;;;;5.90;2.00;;;20.70;68.50;;;;;;814805;176;26441;-81
2024/04/07 09:33:05;;;;;;;4.43;1.53;;;20.60;64.20;;;;;;816785;176;26433;-82
2024/04/07 09:35:31;;;;;;;6.53;2.50;;;20.50;65.50;;;;;;813852;175;26965;-82
2024/04/07 09:37:58;;;;;;;4.87;2.03;;;20.60;66.40;;;;;;816556;176;26486;-82
2024/04/07 09:40:25;;;;;;;3.70;1.70;;;20.60;65.10;;;;;;813991;175;26433;-82
2024/04/07 09:42:52;;;;;;;5.23;1.63;;;20.70;62.20;;;;;;815042;176;26421;-81
2024/04/07 09:45:18;;;;;;;5.53;2.43;;;20.60;60.40;;;;;;814392;175;26422;-82
2024/04/07 09:47:45;;;;;;;5.80;2.20;;;20.60;61.70;;;;;;814100;176;26386;-81
2024/04/07 09:50:34;;;;;;;6.73;3.30;;;20.80;61.40;;;;;;814947;176;26435;-82
2024/04/07 09:53:12;;;;;;;16.40;7.83;;;20.80;61.00;;;;;;816122;176;26453;-82
2024/04/07 09:55:38;;;;;;;6.70;2.67;;;20.70;60.80;;;;;;814687;173;26445;-83
2024/04/07 09:58:05;;;;;;;6.67;3.00;;;20.70;61.00;;;;;;817260;175;26396;-82
2024/04/07 10:00:32;;;;;;;10.20;3.97;;;20.80;61.20;;;;;;817143;175;26421;-81
2024/04/07 10:02:59;;;;;;;10.77;4.13;;;21.00;63.80;;;;;;816983;176;26560;-81
2024/04/07 10:05:25;;;;;;;16.23;8.47;;;21.10;61.60;;;;;;816811;175;26416;-82
2024/04/07 10:07:52;;;;;;;3.70;1.83;;;21.10;59.60;;;;;;818250;175;26413;-82
2024/04/07 10:10:24;;;;;;;9.47;2.80;;;21.00;59.10;;;;;;818285;176;26437;-82
2024/04/07 10:12:46;;;;;;;7.53;3.73;;;21.00;59.60;;;;;;819070;176;26409;-82
2024/04/07 10:15:19;;;;;;;8.43;4.07;;;21.00;61.60;;;;;;815424;175;26451;-81
2024/04/07 10:17:46;;;;;;;8.33;3.60;;;21.30;61.50;;;;;;815726;176;26399;-82
2024/04/07 10:20:14;;;;;;;14.00;8.10;;;21.30;59.20;;;;;;815471;176;26554;-82
2024/04/07 10:22:39;;;;;;;10.93;3.97;;;21.10;59.90;;;;;;818273;176;26421;-82
2024/04/07 10:25:06;;;;;;;23.90;12.40;;;21.10;59.80;;;;;;815111;176;26410;-81
2024/04/07 10:27:35;;;;;;;16.73;7.57;;;20.90;60.50;;;;;;814935;175;26446;-83
2024/04/07 10:30:03;;;;;;;7.37;3.43;;;20.80;61.80;;;;;;812570;173;26418;-81
2024/04/07 10:32:29;;;;;;;16.27;9.37;;;20.80;62.40;;;;;;815567;175;26416;-81
2024/04/07 10:34:59;;;;;;;36.20;22.43;;;20.80;61.80;;;;;;816313;176;26562;-80
2024/04/07 10:37:26;;;;;;;25.93;16.77;;;20.80;62.00;;;;;;814857;176;26414;-81
2024/04/07 10:39:53;;;;;;;23.43;13.27;;;21.10;60.90;;;;;;815994;176;26457;-81
2024/04/07 10:42:20;;;;;;;29.07;18.03;;;21.50;60.70;;;;;;815561;176;26416;-82
2024/04/07 10:44:49;;;;;;;10.37;3.10;;;21.90;59.40;;;;;;816308;176;26410;-81
2024/04/07 10:47:18;;;;;;;8.83;3.63;;;21.90;59.60;;;;;;815897;175;26410;-83
2024/04/07 10:49:45;;;;;;;5.27;2.30;;;22.00;61.70;;;;;;815913;176;26429;-82
2024/04/07 10:52:16;;;;;;;7.87;2.00;;;21.80;58.60;;;;;;815806;176;26423;-81
2024/04/07 10:54:42;;;;;;;42.20;26.43;;;21.80;58.80;;;;;;816233;175;26459;-82
2024/04/07 10:57:12;;;;;;;31.97;18.97;;;21.80;59.40;;;;;;817265;176;26405;-82
2024/04/07 10:59:39;;;;;;;20.20;12.60;;;21.80;59.70;;;;;;814660;176;26470;-82
2024/04/07 11:02:06;;;;;;;29.83;18.10;;;21.90;59.90;;;;;;814495;177;26465;-82
2024/04/07 11:04:34;;;;;;;11.83;6.53;;;21.90;59.60;;;;;;810389;169;26434;-81
2024/04/07 11:07:02;;;;;;;13.10;5.60;;;22.00;59.30;;;;;;803943;176;26450;-80
2024/04/07 11:09:28;;;;;;;3.93;2.20;;;22.30;61.70;;;;;;812342;175;26452;-81
2024/04/07 11:11:55;;;;;;;27.90;14.53;;;22.10;58.20;;;;;;803525;177;26439;-80
2024/04/07 11:14:26;;;;;;;7.67;3.97;;;22.00;58.60;;;;;;807733;177;26468;-82
2024/04/07 11:16:54;;;;;;;14.93;9.70;;;22.20;58.40;;;;;;811210;177;26463;-82
2024/04/07 11:19:22;;;;;;;48.57;27.57;;;22.30;58.70;;;;;;812429;175;26443;-82
2024/04/07 11:21:51;;;;;;;20.03;12.27;;;22.20;58.50;;;;;;801121;177;26447;-82
2024/04/07 11:24:19;;;;;;;26.43;15.43;;;22.10;58.90;;;;;;801057;177;26419;-81
2024/04/07 11:26:48;;;;;;;20.53;11.83;;;22.20;60.70;;;;;;807189;176;26436;-82
2024/04/07 11:29:17;;;;;;;5.87;2.57;;;22.50;63.20;;;;;;804053;177;26451;-80
2024/04/07 11:31:52;;;;;;;5.57;3.17;;;22.50;57.70;;;;;;804409;177;26425;-79
2024/04/07 11:34:21;;;;;;;30.40;17.50;;;21.90;58.30;;;;;;800974;176;26436;-82
2024/04/07 11:36:48;;;;;;;5.23;3.30;;;21.80;59.40;;;;;;805260;177;26452;-82
2024/04/07 11:39:15;;;;;;;11.03;5.10;;;22.30;58.30;;;;;;812858;175;26460;-82
2024/04/07 11:41:41;;;;;;;26.20;13.20;;;23.10;55.80;;;;;;796740;177;26454;-80
2024/04/07 11:44:08;;;;;;;10.23;6.03;;;23.40;54.20;;;;;;796773;177;26430;-81
2024/04/07 11:46:35;;;;;;;9.00;5.03;;;23.50;53.80;;;;;;799694;174;26419;-81
2024/04/07 11:49:01;;;;;;;16.60;8.93;;;23.60;54.70;;;;;;802949;177;26442;-82
2024/04/07 11:51:28;;;;;;;22.17;14.50;;;23.80;52.50;;;;;;803522;177;26441;-82
2024/04/07 11:53:55;;;;;;;20.77;12.40;;;24.10;53.70;;;;;;798863;177;26431;-82
2024/04/07 11:56:21;;;;;;;5.90;3.40;;;24.00;51.70;;;;;;803327;173;26459;-81
2024/04/07 11:58:48;;;;;;;5.13;2.60;;;23.80;51.60;;;;;;799995;177;26447;-82
2024/04/07 12:01:15;;;;;;;5.20;2.90;;;23.80;51.70;;;;;;802048;177;26584;-81
2024/04/07 12:03:42;;;;;;;6.60;3.00;;;23.90;52.10;;;;;;785175;181;26443;-82
2024/04/07 12:06:09;;;;;;;5.57;2.90;;;24.00;54.10;;;;;;805686;176;26499;-81
2024/04/07 12:08:36;;;;;;;7.73;2.93;;;24.50;51.20;;;;;;802916;177;26435;-80
2024/04/07 12:11:03;;;;;;;6.50;3.37;;;24.50;50.10;;;;;;801763;176;26447;-80
2024/04/07 12:13:29;;;;;;;8.70;4.50;;;24.40;53.50;;;;;;803570;177;26453;-81
2024/04/07 12:15:56;;;;;;;7.80;4.47;;;24.90;51.80;;;;;;806114;175;26428;-80
2024/04/07 12:18:23;;;;;;;9.53;5.53;;;25.20;49.30;;;;;;803311;176;26443;-82
2024/04/07 12:20:50;;;;;;;11.27;6.30;;;24.60;48.10;;;;;;809554;176;26448;-81
2024/04/07 12:23:16;;;;;;;6.27;2.73;;;24.70;49.20;;;;;;807990;177;26441;-81
2024/04/07 12:25:43;;;;;;;63.60;42.53;;;24.60;47.20;;;;;;812309;176;26444;-80
2024/04/07 12:28:11;;;;;;;128.60;62.10;;;24.40;48.30;;;;;;807406;175;26397;-80
2024/04/07 12:30:38;;;;;;;12.93;6.03;;;23.50;49.10;;;;;;801575;176;26474;-82
2024/04/07 12:33:05;;;;;;;55.67;33.77;;;23.30;50.10;;;;;;802900;177;26420;-82
2024/04/07 12:35:34;;;;;;;9.10;4.93;;;23.40;50.00;;;;;;797944;177;26437;-81
2024/04/07 12:38:01;;;;;;;3.93;2.23;;;23.80;48.40;;;;;;802874;177;26441;-82
2024/04/07 12:40:29;;;;;;;4.20;2.07;;;23.40;48.60;;;;;;812399;175;26461;-82
2024/04/07 12:42:56;;;;;;;9.17;6.07;;;23.40;48.90;;;;;;803021;174;26424;-80
2024/04/07 12:45:27;;;;;;;10.37;6.27;;;23.70;49.00;;;;;;786905;179;26648;-81
2024/04/07 12:47:57;;;;;;;19.87;11.63;;;23.50;49.60;;;;;;799903;180;26414;-81
2024/04/07 12:50:24;;;;;;;13.10;6.43;;;23.40;49.90;;;;;;799593;174;26448;-81